createdAt,value
2023-01-19T00:00:57.352Z,8.93
2023-01-19T00:03:24.261Z,8.75
2023-01-19T00:05:51.655Z,7.82
2023-01-19T00:08:18.823Z,10.98
2023-01-19T00:10:47.959Z,10.25
2023-01-19T00:13:15.542Z,9.40
2023-01-19T00:15:42.842Z,10.77
2023-01-19T00:18:10.939Z,12.85
2023-01-19T00:20:39.212Z,10.82
2023-01-19T00:23:08.129Z,10.27
2023-01-19T00:25:35.844Z,10.18
2023-01-19T00:28:02.916Z,10.35
2023-01-19T00:34:17.330Z,10.13
2023-01-19T00:36:44.283Z,9.75
2023-01-19T00:39:11.103Z,10.73
2023-01-19T00:41:56.200Z,10.98
2023-01-19T00:44:23.412Z,8.50
2023-01-19T00:46:50.162Z,13.00
2023-01-19T00:49:17.078Z,9.05
2023-01-19T00:51:44.111Z,10.73
2023-01-19T00:54:11.040Z,10.43
2023-01-19T00:56:38.140Z,11.80
2023-01-19T00:59:05.190Z,10.30
2023-01-19T01:01:45.579Z,8.90
2023-01-19T01:04:14.327Z,10.27
2023-01-19T01:06:41.235Z,15.70
2023-01-19T01:09:12.178Z,10.40
2023-01-19T01:11:43.097Z,11.35
2023-01-19T01:14:11.765Z,14.88
2023-01-19T01:16:38.922Z,14.05
2023-01-19T01:19:06.059Z,10.38
2023-01-19T01:21:34.742Z,12.75
2023-01-19T01:24:02.204Z,11.40
2023-01-19T01:26:29.648Z,11.63
2023-01-19T01:28:56.612Z,12.23
2023-01-19T01:31:23.491Z,12.00
2023-01-19T01:33:50.415Z,11.65
2023-01-19T01:36:19.024Z,11.15
2023-01-19T01:38:45.950Z,11.30
2023-01-19T01:41:13.000Z,12.95
2023-01-19T01:43:58.160Z,12.00
2023-01-19T01:46:27.110Z,12.88
2023-01-19T01:49:03.168Z,13.70
2023-01-19T01:51:33.249Z,12.55
2023-01-19T01:54:21.166Z,12.32
2023-01-19T01:56:52.075Z,14.70
2023-01-19T01:59:26.004Z,15.07
2023-01-19T02:02:18.323Z,16.10
2023-01-19T02:05:04.222Z,15.38
2023-01-19T02:08:14.413Z,15.30
2023-01-19T02:11:01.588Z,17.40
2023-01-19T02:13:32.973Z,14.43
2023-01-19T02:16:03.313Z,11.77
2023-01-19T02:18:31.432Z,11.45
2023-01-19T02:21:04.744Z,13.75
2023-01-19T02:24:03.036Z,11.75
2023-01-19T02:26:34.904Z,15.07
2023-01-19T02:29:04.781Z,13.18
2023-01-19T02:31:32.835Z,12.88
2023-01-19T02:34:02.029Z,12.30
2023-01-19T02:36:38.674Z,14.77
2023-01-19T02:39:07.152Z,14.52
2023-01-19T02:41:44.893Z,16.63
2023-01-19T02:44:14.558Z,13.27
2023-01-19T02:46:42.047Z,13.68
2023-01-19T02:49:08.865Z,12.07
2023-01-19T02:51:36.240Z,13.88
2023-01-19T02:54:40.753Z,13.20
2023-01-19T02:57:26.344Z,17.92
2023-01-19T03:00:10.605Z,15.35
2023-01-19T03:03:10.614Z,16.15
2023-01-19T03:05:49.262Z,16.27
2023-01-19T03:08:54.918Z,15.55
2023-01-19T03:11:27.032Z,16.27
2023-01-19T03:14:01.903Z,13.05
2023-01-19T03:16:58.287Z,13.43
2023-01-19T03:19:34.390Z,14.90
2023-01-19T03:22:07.271Z,13.45
2023-01-19T03:24:39.579Z,14.20
2023-01-19T03:27:14.971Z,14.50
2023-01-19T03:29:48.370Z,14.65
2023-01-19T03:32:17.822Z,15.55
2023-01-19T03:34:46.960Z,17.05
2023-01-19T03:37:15.891Z,18.92
2023-01-19T03:39:43.057Z,16.70
2023-01-19T03:42:14.220Z,17.65
2023-01-19T03:44:43.932Z,18.83
2023-01-19T03:47:13.471Z,18.17
2023-01-19T03:49:43.131Z,15.93
2023-01-19T03:52:10.506Z,16.98
2023-01-19T03:54:37.622Z,14.23
2023-01-19T03:57:04.540Z,18.23
2023-01-19T04:11:50.056Z,15.35
2023-01-19T04:14:18.090Z,17.95
2023-01-19T04:16:45.094Z,19.92
2023-01-19T04:19:12.034Z,17.55
2023-01-19T04:21:38.949Z,15.38
2023-01-19T04:24:06.263Z,16.83
2023-01-19T04:26:33.703Z,19.08
2023-01-19T04:29:00.630Z,22.38
2023-01-19T04:31:27.537Z,17.92
2023-01-19T04:33:56.027Z,20.20
2023-01-19T04:36:22.952Z,18.65
2023-01-19T04:38:49.901Z,19.85
2023-01-19T04:41:16.827Z,16.42
2023-01-19T04:43:43.712Z,16.35
2023-01-19T04:46:10.853Z,15.95
2023-01-19T04:48:37.725Z,17.17
2023-01-19T04:51:04.782Z,15.98
2023-01-19T04:53:31.679Z,16.25
2023-01-19T04:56:00.043Z,15.65
2023-01-19T04:58:27.940Z,17.42
2023-01-19T05:00:54.829Z,15.10
2023-01-19T05:03:21.633Z,18.30
2023-01-19T05:05:48.552Z,17.85
2023-01-19T05:08:15.409Z,17.40
2023-01-19T05:10:42.237Z,19.23
2023-01-19T05:13:09.081Z,14.02
2023-01-19T05:15:36.012Z,19.52
2023-01-19T05:18:03.027Z,16.48
2023-01-19T05:20:29.974Z,17.13
2023-01-19T05:22:56.819Z,16.83
2023-01-19T05:25:23.932Z,16.60
2023-01-19T05:27:50.949Z,14.30
2023-01-19T05:30:18.447Z,15.50
2023-01-19T05:32:45.446Z,17.30
2023-01-19T05:35:13.561Z,17.98
2023-01-19T05:37:40.538Z,16.92
2023-01-19T05:40:08.339Z,17.08
2023-01-19T05:42:36.231Z,17.77
2023-01-19T05:45:03.791Z,16.45
2023-01-19T05:47:30.662Z,17.20
2023-01-19T05:49:58.199Z,17.63
2023-01-19T05:52:25.245Z,18.08
2023-01-19T05:54:52.082Z,16.40
2023-01-19T05:57:19.092Z,17.48
2023-01-19T05:59:46.006Z,17.83
2023-01-19T06:02:12.987Z,17.92
2023-01-19T06:04:40.129Z,17.10
2023-01-19T06:07:07.313Z,14.52
2023-01-19T06:09:34.296Z,17.55
2023-01-19T06:12:01.514Z,18.50
2023-01-19T06:14:28.531Z,15.90
2023-01-19T06:16:55.343Z,20.58
2023-01-19T06:19:22.296Z,17.77
2023-01-19T06:21:52.147Z,18.63
2023-01-19T06:24:19.609Z,19.17
2023-01-19T06:26:46.635Z,20.70
2023-01-19T06:29:14.678Z,21.67
2023-01-19T06:31:42.067Z,17.83
2023-01-19T06:34:09.676Z,17.98
2023-01-19T06:36:36.909Z,17.20
2023-01-19T06:39:05.932Z,19.02
2023-01-19T06:41:33.929Z,16.73
2023-01-19T06:44:00.920Z,16.23
2023-01-19T06:46:27.975Z,19.75
2023-01-19T06:48:55.487Z,20.23
2023-01-19T06:51:22.899Z,19.92
2023-01-19T06:53:50.143Z,15.30
2023-01-19T06:56:17.123Z,17.25
2023-01-19T06:58:46.599Z,16.92
2023-01-19T07:01:13.950Z,18.65
2023-01-19T07:03:41.045Z,18.45
2023-01-19T07:06:08.903Z,19.25
2023-01-19T07:08:37.283Z,16.42
2023-01-19T07:11:26.101Z,15.98
2023-01-19T07:13:56.154Z,14.25
2023-01-19T07:16:23.960Z,16.58
2023-01-19T07:18:51.157Z,21.40
2023-01-19T07:21:18.486Z,17.42
2023-01-19T07:23:49.633Z,16.80
2023-01-19T07:26:19.907Z,17.85
2023-01-19T07:28:48.330Z,15.73
2023-01-19T07:31:16.064Z,19.70
2023-01-19T07:33:43.077Z,17.80
2023-01-19T07:36:10.427Z,19.10
2023-01-19T07:38:37.437Z,15.15
2023-01-19T07:41:06.350Z,18.95
2023-01-19T07:43:34.027Z,22.70
2023-01-19T07:46:02.919Z,19.63
2023-01-19T07:48:30.064Z,20.48
2023-01-19T07:51:01.687Z,17.05
2023-01-19T07:53:28.641Z,18.08
2023-01-19T07:55:56.812Z,19.30
2023-01-19T07:58:25.107Z,21.95
2023-01-19T08:00:52.168Z,19.50
2023-01-19T08:03:19.292Z,18.38
2023-01-19T08:05:51.566Z,18.67
2023-01-19T08:08:18.931Z,18.25
2023-01-19T08:10:49.312Z,17.77
2023-01-19T08:39:44.466Z,11.48
2023-01-19T08:42:11.315Z,15.52
2023-01-19T08:44:46.704Z,13.52
2023-01-19T08:47:20.079Z,13.63
2023-01-19T08:49:51.191Z,18.48
2023-01-19T08:52:18.123Z,13.85
2023-01-19T08:54:44.975Z,12.85
2023-01-19T08:57:12.098Z,11.90
2023-01-19T08:59:38.980Z,11.75
2023-01-19T09:02:06.189Z,12.82
2023-01-19T09:04:39.413Z,15.00
2023-01-19T09:09:43.462Z,9.88
2023-01-19T09:12:10.479Z,10.52
2023-01-19T09:14:37.332Z,9.27
2023-01-19T09:17:16.467Z,10.40
2023-01-19T09:19:43.628Z,10.68
2023-01-19T09:22:11.990Z,13.40
2023-01-19T09:24:39.060Z,9.45
2023-01-19T09:27:12.679Z,9.95
2023-01-19T09:29:39.672Z,9.38
2023-01-19T09:32:06.743Z,11.13
2023-01-19T09:34:33.859Z,11.95
2023-01-19T09:37:03.091Z,9.10
2023-01-19T09:39:31.953Z,8.55
2023-01-19T09:42:16.422Z,8.40
2023-01-19T09:44:50.272Z,9.23
2023-01-19T09:47:29.821Z,9.15
2023-01-19T09:50:05.257Z,7.63
2023-01-19T09:52:37.597Z,6.28
2023-01-19T09:55:04.761Z,8.38
2023-01-19T09:57:34.104Z,7.32
2023-01-19T10:00:04.287Z,9.80
2023-01-19T10:02:37.684Z,8.43
2023-01-19T10:05:19.194Z,5.53
2023-01-19T10:08:06.273Z,7.30
2023-01-19T10:10:35.741Z,6.40
2023-01-19T10:13:40.449Z,7.10
2023-01-19T10:16:22.373Z,7.47
2023-01-19T10:18:54.085Z,6.45
2023-01-19T10:21:26.939Z,7.05
2023-01-19T10:24:05.662Z,9.07
2023-01-19T10:26:46.778Z,6.20
2023-01-19T10:29:37.598Z,8.07
2023-01-19T10:32:13.175Z,6.80
2023-01-19T10:34:41.552Z,5.57
2023-01-19T10:37:37.794Z,5.95
2023-01-19T10:40:10.919Z,6.00
2023-01-19T10:42:40.363Z,6.85
2023-01-19T10:45:31.932Z,10.23
2023-01-19T10:48:05.770Z,8.25
2023-01-19T10:50:37.174Z,5.60
2023-01-19T10:53:06.205Z,7.00
2023-01-19T10:55:38.693Z,5.50
2023-01-19T10:58:25.075Z,7.20
2023-01-19T11:00:52.151Z,5.65
2023-01-19T11:03:30.752Z,7.78
2023-01-19T11:06:16.551Z,6.30
2023-01-19T11:08:51.282Z,7.20
2023-01-19T11:11:21.419Z,5.38
2023-01-19T11:14:15.675Z,6.95
2023-01-19T11:16:47.988Z,4.78
2023-01-19T11:19:36.156Z,5.30
2023-01-19T11:22:22.922Z,4.90
2023-01-19T11:24:58.164Z,6.82
2023-01-19T11:27:25.270Z,4.55
2023-01-19T11:30:12.310Z,7.30
2023-01-19T11:32:42.085Z,5.13
2023-01-19T11:35:35.254Z,5.18
2023-01-19T11:38:07.259Z,4.95
2023-01-19T11:40:40.991Z,4.20
2023-01-19T11:43:13.774Z,4.20
2023-01-19T11:45:44.492Z,7.70
2023-01-19T11:48:23.369Z,4.85
2023-01-19T11:50:50.619Z,5.35
2023-01-19T11:56:38.436Z,5.03
2023-01-19T11:59:05.267Z,6.93
2023-01-19T12:01:34.841Z,3.90
2023-01-19T12:04:24.843Z,6.97
2023-01-19T12:06:58.179Z,5.38
2023-01-19T12:09:38.584Z,5.57
2023-01-19T12:12:24.080Z,7.22
2023-01-19T12:15:05.069Z,5.25
2023-01-19T12:17:53.058Z,5.75
2023-01-19T12:20:35.202Z,8.13
2023-01-19T12:23:11.066Z,5.32
2023-01-19T12:26:03.665Z,5.43
2023-01-19T12:29:11.833Z,4.65
2023-01-19T12:31:40.907Z,4.65
2023-01-19T12:34:31.089Z,8.45
2023-01-19T12:37:06.701Z,4.72
2023-01-19T12:39:35.481Z,5.63
2023-01-19T12:42:14.252Z,7.22
2023-01-19T12:44:42.738Z,4.35
2023-01-19T12:47:15.685Z,5.30
2023-01-19T12:49:51.518Z,5.38
2023-01-19T12:52:26.862Z,5.30
2023-01-19T12:55:00.555Z,7.80
2023-01-19T12:57:51.501Z,7.20
2023-01-19T13:01:14.263Z,3.92
2023-01-19T13:04:05.154Z,4.60
2023-01-19T13:06:47.230Z,3.83
2023-01-19T13:09:31.873Z,6.95
2023-01-19T13:12:11.918Z,4.75
2023-01-19T13:14:38.838Z,5.30
2023-01-19T13:17:28.215Z,4.68
2023-01-19T13:20:05.178Z,4.28
2023-01-19T13:22:49.560Z,7.55
2023-01-19T13:25:31.887Z,6.07
2023-01-19T13:27:59.344Z,3.85
2023-01-19T13:30:28.900Z,6.40
2023-01-19T13:33:14.908Z,9.27
2023-01-19T13:35:55.748Z,4.97
2023-01-19T13:38:24.201Z,10.02
2023-01-19T13:40:52.336Z,4.65
2023-01-19T13:43:25.554Z,3.92
2023-01-19T13:45:53.619Z,5.50
2023-01-19T13:48:23.406Z,5.60
2023-01-19T13:50:59.039Z,4.70
2023-01-19T13:53:25.871Z,6.80
2023-01-19T13:56:20.762Z,5.85
2023-01-19T13:59:12.996Z,6.72
2023-01-19T14:01:45.172Z,4.50
2023-01-19T14:04:27.303Z,7.70
2023-01-19T14:06:57.281Z,5.15
2023-01-19T14:09:24.383Z,4.57
2023-01-19T14:12:17.613Z,6.93
2023-01-19T14:14:49.602Z,5.28
2023-01-19T14:17:27.276Z,5.68
2023-01-19T14:19:59.072Z,7.15
2023-01-19T14:22:44.670Z,8.70
2023-01-19T14:25:31.318Z,7.13
2023-01-19T14:28:32.200Z,8.80
2023-01-19T14:31:01.792Z,4.55
2023-01-19T14:33:35.082Z,7.10
2023-01-19T14:36:34.571Z,6.28
2023-01-19T14:39:02.365Z,6.68
2023-01-19T14:41:39.979Z,6.40
2023-01-19T14:44:11.419Z,5.63
2023-01-19T14:46:44.376Z,3.92
2023-01-19T14:49:20.595Z,7.45
2023-01-19T14:54:19.896Z,4.30
2023-01-19T14:56:47.873Z,5.45
2023-01-19T14:59:14.741Z,5.43
2023-01-19T15:01:41.854Z,5.65
2023-01-19T15:04:08.784Z,6.38
2023-01-19T15:06:49.761Z,5.35
2023-01-19T15:09:16.600Z,6.72
2023-01-19T15:11:46.859Z,6.55
2023-01-19T15:14:15.189Z,14.93
2023-01-19T15:16:42.658Z,5.68
2023-01-19T15:19:13.798Z,7.07
2023-01-19T15:21:45.232Z,12.75
2023-01-19T15:24:13.201Z,6.35
2023-01-19T15:26:42.212Z,3.63
2023-01-19T15:29:26.354Z,6.45
2023-01-19T15:31:53.362Z,5.85
2023-01-19T15:34:20.292Z,17.08
2023-01-19T15:36:47.340Z,18.65
2023-01-19T15:39:14.191Z,9.20
2023-01-19T15:41:41.097Z,15.65
2023-01-19T15:44:10.804Z,11.73
2023-01-19T15:46:38.101Z,8.55
2023-01-19T15:49:05.815Z,5.22
2023-01-19T15:51:33.336Z,6.72
2023-01-19T15:54:00.368Z,6.25
2023-01-19T15:56:31.776Z,4.57
2023-01-19T16:03:21.311Z,8.25
2023-01-19T16:05:48.259Z,9.35
2023-01-19T16:08:15.701Z,7.72
2023-01-19T16:10:43.725Z,8.80
2023-01-19T16:13:11.673Z,11.15
2023-01-19T16:15:39.456Z,12.88
2023-01-19T16:18:06.546Z,5.93
2023-01-19T16:20:33.966Z,9.60
2023-01-19T16:23:16.260Z,6.35
2023-01-19T16:25:43.634Z,6.47
2023-01-19T16:28:10.620Z,5.85
2023-01-19T16:30:37.658Z,14.55
2023-01-19T16:33:05.440Z,11.65
2023-01-19T16:35:33.057Z,10.27
2023-01-19T16:38:00.148Z,7.45
2023-01-19T16:40:27.211Z,7.40
2023-01-19T16:42:54.409Z,7.40
2023-01-19T16:45:21.374Z,6.55
2023-01-19T16:47:50.766Z,7.82
2023-01-19T16:50:17.867Z,7.90
2023-01-19T16:52:45.053Z,4.38
2023-01-19T16:55:11.986Z,10.82
2023-01-19T16:57:41.548Z,7.45
2023-01-19T17:00:10.521Z,4.63
2023-01-19T17:02:37.885Z,6.95
2023-01-19T17:05:05.274Z,9.13
2023-01-19T17:07:32.196Z,8.05
2023-01-19T17:10:00.043Z,5.85
2023-01-19T17:12:27.015Z,6.35
2023-01-19T17:15:29.795Z,7.68
2023-01-19T17:17:57.483Z,6.75
2023-01-19T17:20:39.790Z,6.68
2023-01-19T17:23:06.644Z,9.38
2023-01-19T17:25:33.848Z,8.55
2023-01-19T17:28:01.484Z,8.82
2023-01-19T17:30:31.753Z,6.60
2023-01-19T17:33:05.987Z,11.35
2023-01-19T17:35:34.719Z,5.28
2023-01-19T17:38:01.678Z,6.22
2023-01-19T17:40:30.536Z,5.25
2023-01-19T17:42:57.470Z,8.25
2023-01-19T17:45:24.369Z,4.93
2023-01-19T17:47:51.481Z,5.45
2023-01-19T17:50:18.690Z,6.55
2023-01-19T17:52:45.826Z,8.30
2023-01-19T17:55:12.716Z,4.88
2023-01-19T17:57:39.720Z,13.27
2023-01-19T18:00:08.004Z,8.00
2023-01-19T18:02:35.186Z,10.63
2023-01-19T18:05:06.358Z,8.85
2023-01-19T18:07:33.809Z,7.13
2023-01-19T18:10:01.235Z,7.07
2023-01-19T18:12:28.112Z,9.95
2023-01-19T18:14:55.083Z,7.88
2023-01-19T18:17:22.065Z,9.32
2023-01-19T18:19:49.220Z,6.97
2023-01-19T18:22:16.149Z,8.52
2023-01-19T18:24:44.504Z,7.50
2023-01-19T18:27:11.680Z,11.07
2023-01-19T18:29:38.599Z,8.27
2023-01-19T18:32:05.665Z,16.88
2023-01-19T18:34:32.424Z,5.10
2023-01-19T18:36:59.271Z,10.32
2023-01-19T18:39:26.313Z,7.82
2023-01-19T18:41:53.450Z,6.82
2023-01-19T18:44:20.197Z,7.47
2023-01-19T18:46:47.270Z,8.43
2023-01-19T18:49:14.181Z,8.02
2023-01-19T18:51:41.585Z,10.63
2023-01-19T18:54:08.879Z,12.45
2023-01-19T18:56:35.764Z,6.85
2023-01-19T18:59:02.762Z,10.50
2023-01-19T19:01:33.366Z,11.35
2023-01-19T19:04:00.587Z,8.93
2023-01-19T19:06:27.827Z,12.10
2023-01-19T19:08:57.431Z,12.48
2023-01-19T19:36:05.828Z,10.70
2023-01-19T19:38:33.514Z,9.40
2023-01-19T19:41:08.736Z,11.48
2023-01-19T19:43:37.280Z,10.35
2023-01-19T19:46:07.279Z,12.50
2023-01-19T19:48:37.561Z,11.75
2023-01-19T19:51:19.435Z,10.50
2023-01-19T19:53:50.203Z,12.63
2023-01-19T19:56:21.273Z,14.15
2023-01-19T19:58:49.746Z,13.07
2023-01-19T20:01:20.035Z,16.50
2023-01-19T20:03:47.737Z,12.63
2023-01-19T20:06:21.378Z,17.85
2023-01-19T20:08:49.946Z,13.98
2023-01-19T20:11:19.938Z,16.60
2023-01-19T20:13:47.815Z,13.93
2023-01-19T20:16:17.605Z,12.07
2023-01-19T20:18:51.498Z,14.07
2023-01-19T20:21:30.090Z,13.85
2023-01-19T20:24:01.213Z,14.43
2023-01-19T20:26:31.902Z,13.60
2023-01-19T20:29:00.482Z,14.88
2023-01-19T20:31:30.770Z,11.75
2023-01-19T20:34:00.138Z,14.55
2023-01-19T20:36:27.315Z,13.07
2023-01-19T20:38:55.388Z,13.40
2023-01-19T20:41:22.948Z,20.08
2023-01-19T20:43:50.075Z,18.42
2023-01-19T20:46:17.219Z,15.57
2023-01-19T20:48:46.079Z,13.63
2023-01-19T20:51:13.833Z,11.10
2023-01-19T20:53:41.858Z,13.18
2023-01-19T20:56:13.288Z,15.80
2023-01-19T20:58:41.051Z,13.70
2023-01-19T21:01:20.536Z,13.60
2023-01-19T21:03:48.175Z,12.30
2023-01-19T21:06:15.938Z,12.98
2023-01-19T21:08:43.254Z,14.13
2023-01-19T21:11:10.321Z,14.88
2023-01-19T21:13:37.661Z,13.43
2023-01-19T21:16:05.594Z,10.93
2023-01-19T21:18:33.015Z,14.95
2023-01-19T21:20:59.854Z,15.02
2023-01-19T21:23:27.610Z,13.25
2023-01-19T21:25:56.495Z,14.13
2023-01-19T21:28:23.553Z,14.40
2023-01-19T21:30:51.514Z,11.82
2023-01-19T21:33:19.521Z,10.50
2023-01-19T21:35:57.214Z,14.98
2023-01-19T21:38:28.763Z,18.40
2023-01-19T21:40:57.338Z,17.15
2023-01-19T21:43:25.273Z,15.23
2023-01-19T21:45:52.123Z,15.77
2023-01-19T21:48:19.885Z,14.98
2023-01-19T21:50:55.573Z,13.77
2023-01-19T21:53:22.520Z,20.13
2023-01-19T21:55:50.207Z,18.77
2023-01-19T21:58:17.217Z,15.48
2023-01-19T22:00:45.235Z,17.45
2023-01-19T22:03:12.149Z,15.82
2023-01-19T22:05:39.115Z,17.65
2023-01-19T22:08:07.576Z,20.13
2023-01-19T22:10:38.077Z,14.52
2023-01-19T22:13:06.758Z,15.40
2023-01-19T22:15:33.845Z,13.02
2023-01-19T22:18:00.861Z,12.75
2023-01-19T22:20:28.208Z,12.63
2023-01-19T22:22:56.409Z,16.98
2023-01-19T22:25:27.992Z,16.02
2023-01-19T22:27:55.884Z,18.67
2023-01-19T22:30:22.815Z,13.73
2023-01-19T22:32:50.075Z,16.02
2023-01-19T22:35:17.107Z,15.05
2023-01-19T22:37:43.924Z,14.23
2023-01-19T22:40:11.709Z,14.60
2023-01-19T22:42:38.562Z,16.65
2023-01-19T22:45:05.991Z,13.77
2023-01-19T22:47:32.971Z,17.98
2023-01-19T22:49:59.830Z,14.32
2023-01-19T22:52:26.750Z,14.73
2023-01-19T22:54:56.386Z,14.85
2023-01-19T22:57:23.449Z,12.82
2023-01-19T22:59:50.466Z,12.85
2023-01-19T23:02:19.817Z,15.68
2023-01-19T23:04:47.549Z,13.70
2023-01-19T23:07:14.431Z,13.85
2023-01-19T23:09:41.360Z,16.67
2023-01-19T23:12:08.709Z,16.25
2023-01-19T23:14:36.380Z,14.60
2023-01-19T23:17:03.579Z,15.52
2023-01-19T23:19:30.734Z,14.25
2023-01-19T23:21:57.560Z,13.70
2023-01-19T23:24:24.410Z,14.75
2023-01-19T23:26:51.741Z,14.45
2023-01-19T23:29:19.694Z,16.73
2023-01-19T23:31:48.974Z,15.40
2023-01-19T23:34:16.701Z,16.83
2023-01-19T23:36:44.092Z,13.80
2023-01-19T23:39:22.248Z,16.10
2023-01-19T23:41:49.998Z,12.52
2023-01-19T23:44:17.387Z,14.02
2023-01-19T23:46:45.000Z,25.73
2023-01-19T23:49:12.661Z,14.77
2023-01-19T23:51:40.022Z,17.15
2023-01-19T23:54:06.995Z,15.43
2023-01-19T23:56:36.933Z,16.13
